Time;durP1;ratioP1;P1;durP2;ratioP2;P2;SDS_P1;SDS_P2;PMS_P1;PMS_P2;Temp;Humidity;BMP_temperature;BMP_pressure;BME280_temperature;BME280_humidity;BME280_pressure;Samples;Min_cycle;Max_cycle;Signal;HPM_P1;HPM_P2
2024/01/21 00:00:36;;;;;;;;;;;;;;;-11.36;64.27;97890.78;6245517;28;19921;-67
2024/01/21 00:03:43;;;;;;;;;;;;;;;-11.36;64.83;97888.25;6245716;28;19921;-67
2024/01/21 00:06:53;;;;;;;;;;;;;;;-11.22;64.64;97875.19;6245496;28;20413;-67
2024/01/21 00:09:56;;;;;;;;;;;;;;;-11.51;64.70;97879.19;6245463;28;19967;-67
2024/01/21 00:13:02;;;;;;;;;;;;;;;-11.15;64.13;97872.94;6227863;28;19921;-65
2024/01/21 00:16:03;;;;;;;;;;;;;;;-11.12;64.29;97877.25;6244727;28;19921;-67
2024/01/21 00:19:06;;;;;;;;;;;;;;;-10.98;63.25;97868.44;6263477;28;19921;-67
2024/01/21 00:22:08;;;;;;;;;;;;;;;-11.10;63.56;97862.91;6269678;28;19921;-68
2024/01/21 00:25:09;;;;;;;;;;;;;;;-11.33;64.58;97865.47;6269312;28;19955;-67
2024/01/21 00:28:10;;;;;;;;;;;;;;;-11.20;63.94;97859.19;6269751;28;19927;-67
2024/01/21 00:31:11;;;;;;;;;;;;;;;-11.01;63.20;97865.78;6269021;28;20026;-66
2024/01/21 00:34:13;;;;;;;;;;;;;;;-11.27;63.08;97867.38;6268950;28;20009;-67
2024/01/21 00:37:17;;;;;;;;;;;;;;;-11.31;63.04;97865.56;6269578;28;20401;-67
2024/01/21 00:40:20;;;;;;;;;;;;;;;-11.33;63.41;97857.88;6252154;28;19924;-67
2024/01/21 00:43:26;;;;;;;;;;;;;;;-11.46;63.56;97865.88;6269567;28;20011;-66
2024/01/21 00:46:29;;;;;;;;;;;;;;;-11.31;63.01;97846.09;6268257;28;19986;-67
2024/01/21 00:49:33;;;;;;;;;;;;;;;-11.46;62.85;97843.00;6269377;28;20412;-66
2024/01/21 00:52:36;;;;;;;;;;;;;;;-11.56;62.98;97835.84;6268952;28;19920;-66
2024/01/21 00:55:37;;;;;;;;;;;;;;;-11.53;63.20;97833.41;6268440;28;19927;-67
2024/01/21 00:58:43;;;;;;;;;;;;;;;-11.45;62.44;97831.16;6269333;28;19967;-67
2024/01/21 01:01:47;;;;;;;;;;;;;;;-11.55;62.69;97835.03;6269348;28;19920;-67
2024/01/21 01:04:51;;;;;;;;;;;;;;;-11.55;62.53;97828.31;6269106;28;20011;-66
2024/01/21 01:07:52;;;;;;;;;;;;;;;-11.72;62.86;97836.94;6268989;28;19935;-66
2024/01/21 01:10:54;;;;;;;;;;;;;;;-11.69;63.14;97831.13;6269073;28;20073;-67
2024/01/21 01:13:58;;;;;;;;;;;;;;;-11.76;62.91;97823.28;6269174;28;19924;-67
2024/01/21 01:17:01;;;;;;;;;;;;;;;-11.74;62.83;97828.44;6267652;28;19920;-67
2024/01/21 01:20:02;;;;;;;;;;;;;;;-11.81;62.78;97827.31;6243688;28;19931;-67
2024/01/21 01:23:09;;;;;;;;;;;;;;;-11.56;62.11;97833.31;6244374;28;19921;-67
2024/01/21 01:26:10;;;;;;;;;;;;;;;-11.76;62.12;97841.03;6244430;28;19927;-67
2024/01/21 01:29:14;;;;;;;;;;;;;;;-11.82;62.51;97828.13;6244330;28;19964;-66
2024/01/21 01:32:15;;;;;;;;;;;;;;;-11.81;63.03;97816.31;6244208;28;20382;-67
2024/01/21 01:35:18;;;;;;;;;;;;;;;-11.75;62.03;97831.75;6243981;28;20374;-66
2024/01/21 01:38:23;;;;;;;;;;;;;;;-11.64;62.27;97829.63;6244386;28;19920;-67
2024/01/21 01:41:28;;;;;;;;;;;;;;;-11.94;62.93;97845.47;6243789;28;19917;-67
2024/01/21 01:44:29;;;;;;;;;;;;;;;-11.78;62.34;97847.72;6244166;28;19928;-66
2024/01/21 01:47:30;;;;;;;;;;;;;;;-11.68;62.29;97848.09;6243590;28;19925;-67
2024/01/21 01:50:32;;;;;;;;;;;;;;;-11.64;62.21;97849.94;6244050;28;19921;-68
2024/01/21 01:53:36;;;;;;;;;;;;;;;-11.77;62.33;97852.03;6243401;28;19928;-66
2024/01/21 01:56:38;;;;;;;;;;;;;;;-11.92;62.65;97851.44;6244477;28;19921;-66
2024/01/21 01:59:42;;;;;;;;;;;;;;;-11.95;63.36;97856.41;6248113;28;20007;-66
2024/01/21 02:02:43;;;;;;;;;;;;;;;-11.84;63.13;97867.81;6248596;28;19921;-67
2024/01/21 02:05:53;;;;;;;;;;;;;;;-11.63;62.75;97861.81;6248696;28;20309;-66
2024/01/21 02:09:16;;;;;;;;;;;;;;;-11.67;62.09;97865.91;6248261;28;20416;-67
2024/01/21 02:12:19;;;;;;;;;;;;;;;-11.68;61.97;97853.19;6248336;28;20310;-68
2024/01/21 02:15:19;;;;;;;;;;;;;;;-11.81;61.72;97862.84;6247517;28;20301;-66
2024/01/21 02:18:21;;;;;;;;;;;;;;;-11.56;61.15;97853.63;6260372;28;19928;-67
2024/01/21 02:21:24;;;;;;;;;;;;;;;-11.86;61.57;97845.75;6272738;28;20652;-65
2024/01/21 02:24:30;;;;;;;;;;;;;;;-11.81;61.51;97847.63;6272104;28;19927;-67
2024/01/21 02:27:34;;;;;;;;;;;;;;;-12.02;61.84;97846.84;6272769;28;19973;-67
2024/01/21 02:30:41;;;;;;;;;;;;;;;-12.00;61.99;97845.22;6272116;28;19920;-66
2024/01/21 02:33:44;;;;;;;;;;;;;;;-12.13;61.88;97841.34;6272086;28;20348;-67
2024/01/21 02:36:47;;;;;;;;;;;;;;;-12.25;62.24;97849.34;6272221;28;19921;-67
2024/01/21 02:39:51;;;;;;;;;;;;;;;-12.09;62.14;97839.78;6271388;28;19921;-67
2024/01/21 02:42:57;;;;;;;;;;;;;;;-12.24;62.34;97853.59;6272299;28;19920;-66
2024/01/21 02:46:00;;;;;;;;;;;;;;;-12.44;63.00;97846.88;6272189;28;19920;-67
2024/01/21 02:49:04;;;;;;;;;;;;;;;-12.44;63.16;97836.75;6271260;28;19920;-66
2024/01/21 02:52:05;;;;;;;;;;;;;;;-12.21;62.83;97833.44;6271410;28;19920;-67
2024/01/21 02:55:09;;;;;;;;;;;;;;;-12.14;62.22;97826.94;6271227;28;20019;-67
2024/01/21 02:58:12;;;;;;;;;;;;;;;-12.24;62.30;97830.78;6254048;28;19960;-67
2024/01/21 03:01:16;;;;;;;;;;;;;;;-12.33;62.34;97835.50;6272250;28;19921;-67
2024/01/21 03:04:17;;;;;;;;;;;;;;;-12.58;62.68;97818.44;6271404;28;19925;-66
2024/01/21 03:07:18;;;;;;;;;;;;;;;-12.49;62.43;97830.63;6270976;28;19923;-67
2024/01/21 03:10:19;;;;;;;;;;;;;;;-12.46;62.77;97828.19;6270270;28;20390;-66
2024/01/21 03:13:22;;;;;;;;;;;;;;;-12.38;62.63;97823.44;6271633;28;19920;-67
2024/01/21 03:16:25;;;;;;;;;;;;;;;-12.51;62.70;97819.53;6271298;28;20361;-66
2024/01/21 03:19:29;;;;;;;;;;;;;;;-12.61;62.71;97828.44;6250254;28;20043;-66
2024/01/21 03:22:32;;;;;;;;;;;;;;;-12.59;63.70;97834.47;6246963;28;19925;-66
2024/01/21 03:25:33;;;;;;;;;;;;;;;-12.82;63.69;97843.66;6246172;28;20271;-66
2024/01/21 03:28:34;;;;;;;;;;;;;;;-12.83;63.98;97844.44;6245338;28;19921;-66
2024/01/21 03:31:37;;;;;;;;;;;;;;;-12.70;63.38;97844.16;6245993;28;19974;-65
2024/01/21 03:34:42;;;;;;;;;;;;;;;-12.78;63.49;97845.50;6229241;28;19921;-68
2024/01/21 03:37:50;;;;;;;;;;;;;;;-12.61;63.33;97858.00;6246471;28;20059;-66
2024/01/21 03:40:51;;;;;;;;;;;;;;;-12.77;63.72;97861.56;6228212;28;19943;-66
2024/01/21 03:43:54;;;;;;;;;;;;;;;-12.81;63.41;97864.78;6246252;28;20310;-67
2024/01/21 03:46:55;;;;;;;;;;;;;;;-12.92;63.74;97866.88;6245096;28;19928;-67
2024/01/21 03:49:58;;;;;;;;;;;;;;;-12.82;64.30;97856.31;6246015;28;19921;-67
2024/01/21 03:53:02;;;;;;;;;;;;;;;-12.71;63.14;97854.22;6245952;28;19927;-67
2024/01/21 03:56:03;;;;;;;;;;;;;;;-12.62;62.62;97851.19;6245469;28;19921;-67
2024/01/21 03:59:09;;;;;;;;;;;;;;;-12.78;62.89;97849.72;6245670;28;19920;-66
2024/01/21 04:02:10;;;;;;;;;;;;;;;-12.58;62.43;97848.00;6245184;28;20026;-67
2024/01/21 04:05:12;;;;;;;;;;;;;;;-12.41;61.45;97872.38;6245537;28;19924;-66
2024/01/21 04:08:13;;;;;;;;;;;;;;;-12.48;61.54;97880.50;6244948;28;20279;-67
2024/01/21 04:11:17;;;;;;;;;;;;;;;-12.61;61.66;97883.38;6245809;28;20307;-67
2024/01/21 04:14:17;;;;;;;;;;;;;;;-12.37;61.69;97874.19;6245245;28;19921;-67
2024/01/21 04:17:19;;;;;;;;;;;;;;;-12.46;61.02;97868.75;6244802;28;20003;-66
2024/01/21 04:20:20;;;;;;;;;;;;;;;-12.48;61.60;97888.13;6244232;28;19925;-67
2024/01/21 04:23:23;;;;;;;;;;;;;;;-12.39;60.60;97890.19;6244911;28;20406;-67
2024/01/21 04:26:25;;;;;;;;;;;;;;;-12.68;61.68;97893.25;6226806;28;20004;-68
2024/01/21 04:29:28;;;;;;;;;;;;;;;-12.70;61.37;97876.25;6244868;28;20386;-67
2024/01/21 04:32:29;;;;;;;;;;;;;;;-12.21;60.67;97876.56;6244177;28;19956;-66
2024/01/21 04:35:34;;;;;;;;;;;;;;;-12.26;60.39;97862.81;6244715;28;19976;-66
2024/01/21 04:38:38;;;;;;;;;;;;;;;-12.16;60.52;97860.66;6243987;28;20689;-67
2024/01/21 04:41:40;;;;;;;;;;;;;;;-12.10;59.30;97855.84;6244207;28;19921;-67
2024/01/21 04:44:43;;;;;;;;;;;;;;;-12.12;59.49;97842.22;6244178;28;20019;-66
2024/01/21 04:47:44;;;;;;;;;;;;;;;-12.15;59.38;97839.56;6244799;28;19921;-68
2024/01/21 04:50:49;;;;;;;;;;;;;;;-12.07;59.32;97846.66;6244668;28;19921;-66
2024/01/21 04:53:53;;;;;;;;;;;;;;;-12.03;59.29;97842.56;6243431;28;19920;-68
2024/01/21 04:56:56;;;;;;;;;;;;;;;-12.26;59.75;97844.19;6244539;28;19921;-67
2024/01/21 04:59:58;;;;;;;;;;;;;;;-12.07;59.69;97843.25;6244197;28;19964;-68
2024/01/21 05:02:59;;;;;;;;;;;;;;;-12.07;59.47;97846.66;6226421;28;19921;-67
2024/01/21 05:06:04;;;;;;;;;;;;;;;-11.93;59.79;97852.28;6244777;28;19921;-66
2024/01/21 05:09:07;;;;;;;;;;;;;;;-11.78;59.11;97847.72;6244731;28;19921;-68
2024/01/21 05:12:10;;;;;;;;;;;;;;;-12.01;58.79;97839.28;6243599;28;19927;-67
2024/01/21 05:15:14;;;;;;;;;;;;;;;-11.98;59.39;97826.72;6244030;28;19921;-68
2024/01/21 05:18:15;;;;;;;;;;;;;;;-11.91;58.45;97826.97;6244250;28;19974;-66
2024/01/21 05:21:19;;;;;;;;;;;;;;;-11.83;58.38;97828.06;6244048;28;19927;-67
2024/01/21 05:24:20;;;;;;;;;;;;;;;-12.00;59.13;97832.53;6243565;28;19921;-66
2024/01/21 05:27:21;;;;;;;;;;;;;;;-11.89;58.65;97830.41;6226664;28;20019;-68
2024/01/21 05:30:25;;;;;;;;;;;;;;;-11.88;58.39;97835.56;6244246;28;19921;-66
2024/01/21 05:33:28;;;;;;;;;;;;;;;-11.76;58.15;97838.50;6248252;28;19920;-67
2024/01/21 05:36:31;;;;;;;;;;;;;;;-11.52;57.32;97824.97;6248946;28;19936;-67
2024/01/21 05:39:37;;;;;;;;;;;;;;;-11.33;56.04;97822.28;6248261;28;19917;-67
2024/01/21 05:42:38;;;;;;;;;;;;;;;-11.74;56.67;97827.56;6247480;28;20386;-68
2024/01/21 05:45:40;;;;;;;;;;;;;;;-11.62;57.31;97843.25;6247943;28;20011;-66
2024/01/21 05:48:44;;;;;;;;;;;;;;;-11.55;56.17;97840.09;6248856;28;20008;-68
2024/01/21 05:51:46;;;;;;;;;;;;;;;-11.57;56.61;97841.75;6247553;28;19917;-67
2024/01/21 05:54:47;;;;;;;;;;;;;;;-11.63;57.08;97841.50;6249193;28;20314;-66
2024/01/21 05:57:48;;;;;;;;;;;;;;;-11.55;57.36;97832.50;6229910;28;19925;-67
2024/01/21 06:00:49;;;;;;;;;;;;;;;-11.49;57.31;97835.28;6247570;28;20011;-65
2024/01/21 06:03:53;;;;;;;;;;;;;;;-11.47;57.36;97832.78;6248088;28;19927;-67
2024/01/21 06:06:58;;;;;;;;;;;;;;;-11.17;56.75;97833.03;6248293;28;19921;-66
2024/01/21 06:10:01;;;;;;;;;;;;;;;-11.27;56.95;97820.78;6248170;28;19921;-67
2024/01/21 06:13:02;;;;;;;;;;;;;;;-11.17;56.91;97827.94;6248189;28;19932;-66
2024/01/21 06:16:06;;;;;;;;;;;;;;;-10.91;56.39;97806.81;6248293;28;19921;-68
2024/01/21 06:19:11;;;;;;;;;;;;;;;-10.70;55.42;97805.81;6247859;28;19921;-67
2024/01/21 06:22:12;;;;;;;;;;;;;;;-10.75;55.76;97812.44;6247116;28;19921;-67
2024/01/21 06:25:15;;;;;;;;;;;;;;;-10.64;55.41;97811.13;6247437;28;20011;-67
2024/01/21 06:28:16;;;;;;;;;;;;;;;-10.45;54.49;97818.50;6246815;28;19927;-66
2024/01/21 06:31:18;;;;;;;;;;;;;;;-10.38;54.13;97806.00;6246938;28;20368;-66
2024/01/21 06:34:24;;;;;;;;;;;;;;;-10.19;53.26;97813.34;6247635;28;20695;-67
2024/01/21 06:37:25;;;;;;;;;;;;;;;-10.19;53.65;97800.63;6247063;28;19928;-67
2024/01/21 06:40:26;;;;;;;;;;;;;;;-10.06;53.00;97794.25;6246773;28;20036;-66
2024/01/21 06:43:29;;;;;;;;;;;;;;;-9.94;52.54;97781.88;6245649;28;20391;-67
2024/01/21 06:46:31;;;;;;;;;;;;;;;-9.69;51.91;97783.44;6229762;28;19967;-67
2024/01/21 06:49:32;;;;;;;;;;;;;;;-9.76;51.67;97774.78;6246940;28;20066;-67
2024/01/21 06:52:35;;;;;;;;;;;;;;;-9.75;51.89;97758.66;6247240;28;19920;-67
2024/01/21 06:55:38;;;;;;;;;;;;;;;-9.47;51.10;97756.06;6246860;28;20007;-68
2024/01/21 06:58:39;;;;;;;;;;;;;;;-9.39;50.09;97757.13;6246722;28;19921;-68
2024/01/21 07:01:43;;;;;;;;;;;;;;;-9.26;50.35;97746.41;6245806;28;20003;-67
2024/01/21 07:04:44;;;;;;;;;;;;;;;-8.71;50.35;97747.84;6246351;28;19921;-67
2024/01/21 07:07:45;;;;;;;;;;;;;;;-7.26;48.55;97739.88;6246783;28;19921;-68
2024/01/21 07:10:48;;;;;;;;;;;;;;;-4.76;44.14;97739.97;6246074;28;19913;-67
2024/01/21 07:13:49;;;;;;;;;;;;;;;-2.70;39.50;97741.94;6246361;28;19921;-68
2024/01/21 07:16:53;;;;;;;;;;;;;;;-1.48;37.77;97725.47;6246598;28;19966;-68
2024/01/21 07:19:58;;;;;;;;;;;;;;;-1.48;35.17;97720.31;6246590;28;19921;-67
2024/01/21 07:23:04;;;;;;;;;;;;;;;-1.67;35.90;97731.56;6246800;28;19921;-67
2024/01/21 07:26:05;;;;;;;;;;;;;;;-1.55;34.98;97735.84;6245915;28;19928;-68
2024/01/21 07:29:08;;;;;;;;;;;;;;;-1.20;34.94;97730.53;6245488;28;20318;-68
2024/01/21 07:32:09;;;;;;;;;;;;;;;-0.53;35.26;97739.63;6246409;28;19928;-67
2024/01/21 07:35:15;;;;;;;;;;;;;;;-1.12;34.24;97736.53;6246267;28;19921;-67
2024/01/21 07:38:18;;;;;;;;;;;;;;;-1.01;35.56;97737.34;6246063;28;19960;-66
2024/01/21 07:41:25;;;;;;;;;;;;;;;-0.56;34.55;97740.50;6246130;28;19921;-67
2024/01/21 07:44:26;;;;;;;;;;;;;;;0.15;32.14;97747.69;6245128;28;19921;-68
2024/01/21 07:47:27;;;;;;;;;;;;;;;-0.24;32.65;97754.91;6245530;28;19986;-66
2024/01/21 07:50:31;;;;;;;;;;;;;;;-0.87;33.36;97749.31;6227874;28;20257;-68
2024/01/21 07:53:32;;;;;;;;;;;;;;;-2.35;33.99;97744.56;6244946;28;19921;-68
2024/01/21 07:56:33;;;;;;;;;;;;;;;-3.57;35.44;97727.06;6244308;28;19927;-67
2024/01/21 07:59:35;;;;;;;;;;;;;;;-4.22;37.29;97733.56;6245144;28;20032;-68
2024/01/21 08:02:36;;;;;;;;;;;;;;;-4.81;39.10;97728.78;6244515;28;20002;-67
2024/01/21 08:05:37;;;;;;;;;;;;;;;-5.29;39.41;97732.59;6245410;28;19921;-68
2024/01/21 08:08:41;;;;;;;;;;;;;;;-5.60;40.63;97721.97;6245291;28;19920;-68
2024/01/21 08:11:43;;;;;;;;;;;;;;;-5.98;41.13;97722.34;6244893;28;19927;-68
2024/01/21 08:14:46;;;;;;;;;;;;;;;-6.54;42.42;97717.25;6244249;28;19924;-67
2024/01/21 08:17:51;;;;;;;;;;;;;;;-6.47;42.53;97703.72;6253112;28;19920;-68
2024/01/21 08:20:52;;;;;;;;;;;;;;;-6.34;42.26;97702.19;6268798;28;19920;-68
2024/01/21 08:23:53;;;;;;;;;;;;;;;-6.30;42.75;97696.28;6269456;28;19950;-68
2024/01/21 08:26:54;;;;;;;;;;;;;;;-6.17;42.67;97702.44;6268617;28;19928;-68
2024/01/21 08:29:55;;;;;;;;;;;;;;;-6.29;42.49;97713.34;6269102;28;20009;-67
2024/01/21 08:32:59;;;;;;;;;;;;;;;-6.21;43.28;97711.78;6269660;28;19920;-68
2024/01/21 08:35:59;;;;;;;;;;;;;;;-5.61;42.38;97704.00;6268643;28;19921;-67
2024/01/21 08:39:00;;;;;;;;;;;;;;;-5.59;41.81;97703.16;6268640;28;19992;-67
2024/01/21 08:42:03;;;;;;;;;;;;;;;-6.12;43.17;97701.66;6269126;28;19925;-67
2024/01/21 08:45:07;;;;;;;;;;;;;;;-6.12;43.46;97688.84;6269445;28;19920;-67
2024/01/21 08:48:09;;;;;;;;;;;;;;;-5.58;42.74;97679.22;6269138;28;19956;-68
2024/01/21 08:51:15;;;;;;;;;;;;;;;-4.12;41.40;97678.81;6269136;28;19921;-67
2024/01/21 08:54:22;;;;;;;;;;;;;;;-3.06;39.48;97686.06;6269152;28;19920;-68
2024/01/21 08:57:23;;;;;;;;;;;;;;;-2.34;38.45;97679.25;6267617;28;20015;-68
2024/01/21 09:00:24;;;;;;;;;;;;;;;-0.92;37.29;97684.75;6268414;28;20015;-67
2024/01/21 09:03:25;;;;;;;;;;;;;;;0.98;35.61;97680.25;6268680;28;20337;-67
2024/01/21 09:06:29;;;;;;;;;;;;;;;3.27;34.39;97682.09;6250504;28;20496;-68
2024/01/21 09:09:30;;;;;;;;;;;;;;;4.63;32.25;97666.50;6268435;28;19921;-67
2024/01/21 09:12:33;;;;;;;;;;;;;;;7.47;29.75;97668.16;6268853;28;20379;-68
2024/01/21 09:15:41;;;;;;;;;;;;;;;8.16;26.35;97661.88;6268093;28;19928;-68
2024/01/21 09:18:44;;;;;;;;;;;;;;;7.88;26.28;97660.41;6268132;28;19927;-67
2024/01/21 09:21:53;;;;;;;;;;;;;;;7.76;26.18;97666.16;6268993;28;19920;-67
2024/01/21 09:24:54;;;;;;;;;;;;;;;7.83;25.89;97654.50;6268837;28;19928;-68
2024/01/21 09:27:57;;;;;;;;;;;;;;;8.08;25.60;97660.41;6268109;28;19920;-68
2024/01/21 09:31:01;;;;;;;;;;;;;;;8.08;24.80;97649.94;6268660;28;19920;-67
2024/01/21 09:34:02;;;;;;;;;;;;;;;7.69;24.69;97654.22;6249375;28;20298;-67
2024/01/21 09:37:08;;;;;;;;;;;;;;;7.58;25.64;97660.72;6268694;28;19929;-67
2024/01/21 09:40:11;;;;;;;;;;;;;;;6.44;25.74;97660.72;6268819;28;19921;-67
2024/01/21 09:43:17;;;;;;;;;;;;;;;5.57;26.49;97652.28;6267538;28;20301;-68
2024/01/21 09:46:21;;;;;;;;;;;;;;;4.36;27.57;97662.88;6268673;28;20390;-67
2024/01/21 09:49:22;;;;;;;;;;;;;;;1.85;29.97;97646.03;6250294;28;19920;-68
2024/01/21 09:52:23;;;;;;;;;;;;;;;-0.56;33.63;97649.19;6268581;28;19921;-67
2024/01/21 09:55:27;;;;;;;;;;;;;;;-2.26;34.91;97650.91;6268767;28;19920;-68
2024/01/21 09:58:33;;;;;;;;;;;;;;;-3.81;36.92;97650.69;6268467;28;20011;-66
2024/01/21 10:01:38;;;;;;;;;;;;;;;-4.12;36.96;97637.69;6268465;28;19920;-68
2024/01/21 10:04:39;;;;;;;;;;;;;;;-5.37;39.07;97626.47;6267876;28;19928;-67
2024/01/21 10:07:41;;;;;;;;;;;;;;;-4.59;38.57;97622.84;6249934;28;19920;-67
2024/01/21 10:10:43;;;;;;;;;;;;;;;-4.54;37.66;97616.03;6267527;28;19920;-67
2024/01/21 10:13:52;;;;;;;;;;;;;;;-4.88;38.40;97608.94;6268417;28;19928;-67
2024/01/21 10:17:05;;;;;;;;;;;;;;;-5.08;39.25;97609.63;6267378;28;19956;-67
2024/01/21 10:20:11;;;;;;;;;;;;;;;-5.76;40.12;97597.88;6270609;28;20051;-68
2024/01/21 10:23:14;;;;;;;;;;;;;;;-6.09;41.13;97593.22;6272194;28;20031;-66
2024/01/21 10:26:18;;;;;;;;;;;;;;;-6.76;42.66;97593.22;6271654;28;20416;-67
2024/01/21 10:29:23;;;;;;;;;;;;;;;-6.91;43.55;97593.81;6271254;28;20429;-67
2024/01/21 10:32:26;;;;;;;;;;;;;;;-7.04;43.41;97597.06;6271703;28;19920;-67
2024/01/21 10:35:30;;;;;;;;;;;;;;;-4.81;40.58;97602.97;6272231;28;20484;-67
2024/01/21 10:38:37;;;;;;;;;;;;;;;-2.60;36.87;97603.69;6254340;28;19920;-67
2024/01/21 10:41:39;;;;;;;;;;;;;;;-2.22;35.06;97610.50;6271518;28;19927;-67
2024/01/21 10:44:46;;;;;;;;;;;;;;;-3.58;36.68;97603.63;6272233;28;20258;-68
2024/01/21 10:47:50;;;;;;;;;;;;;;;-4.58;38.31;97586.03;6271279;28;19928;-67
2024/01/21 10:50:54;;;;;;;;;;;;;;;-5.66;40.32;97579.19;6271210;28;19954;-67
2024/01/21 10:54:02;;;;;;;;;;;;;;;-6.54;42.06;97584.13;6271993;28;19921;-68
2024/01/21 10:57:22;;;;;;;;;;;;;;;-7.11;43.38;97585.84;6271910;28;19921;-67
2024/01/21 11:00:27;;;;;;;;;;;;;;;-7.23;43.83;97588.22;6271417;28;19920;-67
2024/01/21 11:03:36;;;;;;;;;;;;;;;-7.66;44.20;97584.06;6271519;28;19920;-67
2024/01/21 11:06:48;;;;;;;;;;;;;;;-8.25;45.54;97570.19;6254310;28;19953;-68
2024/01/21 11:09:52;;;;;;;;;;;;;;;-8.32;46.45;97570.91;6271250;28;19921;-67
2024/01/21 11:12:58;;;;;;;;;;;;;;;-8.64;46.78;97555.81;6271765;28;19920;-67
2024/01/21 11:16:04;;;;;;;;;;;;;;;-8.82;47.83;97558.84;6271180;28;19939;-67
2024/01/21 11:19:09;;;;;;;;;;;;;;;-9.09;48.51;97546.31;6270176;28;20014;-67
2024/01/21 11:22:16;;;;;;;;;;;;;;;-8.93;48.68;97551.78;6271108;28;19926;-69
2024/01/21 11:25:32;;;;;;;;;;;;;;;-8.84;48.89;97554.53;6271162;28;19921;-66
2024/01/21 11:28:34;;;;;;;;;;;;;;;-9.15;49.38;97558.94;6270574;28;20046;-68
2024/01/21 11:31:37;;;;;;;;;;;;;;;-9.36;49.93;97576.28;6269467;28;20282;-66
2024/01/21 11:34:41;;;;;;;;;;;;;;;-9.65;50.51;97571.31;6270380;28;19921;-67
2024/01/21 11:37:47;;;;;;;;;;;;;;;-9.72;50.91;97574.53;6270281;28;20334;-68
2024/01/21 11:41:00;;;;;;;;;;;;;;;-9.65;50.64;97583.19;6269426;28;19927;-67
2024/01/21 11:44:14;;;;;;;;;;;;;;;-9.71;51.33;97591.53;6269781;28;19929;-68
2024/01/21 11:47:16;;;;;;;;;;;;;;;-9.75;51.40;97589.72;6269593;28;19924;-68
2024/01/21 11:50:17;;;;;;;;;;;;;;;-10.06;51.90;97588.06;6270339;28;19927;-66
2024/01/21 11:53:21;;;;;;;;;;;;;;;-10.26;52.41;97590.06;6270107;28;20440;-67
2024/01/21 11:56:26;;;;;;;;;;;;;;;-10.27;52.58;97588.38;6270177;28;20014;-67
2024/01/21 11:59:29;;;;;;;;;;;;;;;-10.27;52.70;97576.50;6269030;28;19920;-67
2024/01/21 12:02:34;;;;;;;;;;;;;;;-10.31;53.39;97584.88;6268875;28;19920;-67
2024/01/21 12:05:38;;;;;;;;;;;;;;;-10.49;53.76;97587.75;6269318;28;19921;-67
2024/01/21 12:08:41;;;;;;;;;;;;;;;-10.59;54.27;97587.44;6268950;28;19917;-67
2024/01/21 12:11:44;;;;;;;;;;;;;;;-10.48;54.81;97580.97;6268970;28;19927;-67
2024/01/21 12:14:47;;;;;;;;;;;;;;;-10.29;55.09;97555.25;6270056;28;19928;-68
2024/01/21 12:17:56;;;;;;;;;;;;;;;-10.61;55.51;97544.19;6269713;28;19920;-67
2024/01/21 12:20:59;;;;;;;;;;;;;;;-10.87;55.93;97544.28;6270301;28;19928;-67
2024/01/21 12:24:04;;;;;;;;;;;;;;;-11.00;56.08;97547.28;6250937;28;20317;-68
2024/01/21 12:27:05;;;;;;;;;;;;;;;-11.00;56.70;97554.03;6269667;28;20078;-69
2024/01/21 12:30:12;;;;;;;;;;;;;;;-11.13;56.91;97555.34;6269136;28;20379;-67
2024/01/21 12:33:16;;;;;;;;;;;;;;;-10.98;56.91;97558.38;6268784;28;19928;-67
2024/01/21 12:36:21;;;;;;;;;;;;;;;-11.27;57.34;97556.59;6269238;28;20317;-68
2024/01/21 12:39:23;;;;;;;;;;;;;;;-11.11;57.75;97556.25;6269923;28;19920;-67
2024/01/21 12:42:29;;;;;;;;;;;;;;;-11.22;57.86;97560.16;6268476;28;19917;-67
2024/01/21 12:45:32;;;;;;;;;;;;;;;-11.06;58.33;97536.94;6269479;28;19935;-68
2024/01/21 12:48:36;;;;;;;;;;;;;;;-11.22;58.54;97539.81;6269258;28;20054;-68
2024/01/21 12:51:45;;;;;;;;;;;;;;;-11.32;58.60;97539.53;6269257;28;19920;-66
2024/01/21 12:54:45;;;;;;;;;;;;;;;-11.40;58.88;97524.88;6268228;28;19920;-67
2024/01/21 12:57:46;;;;;;;;;;;;;;;-11.31;59.08;97520.09;6268522;28;19927;-67
2024/01/21 13:00:50;;;;;;;;;;;;;;;-11.19;59.47;97504.34;6268895;28;20301;-67
2024/01/21 13:03:54;;;;;;;;;;;;;;;-11.00;58.76;97506.63;6268647;28;20394;-67
2024/01/21 13:06:54;;;;;;;;;;;;;;;-11.28;58.79;97504.06;6250119;28;19927;-67
2024/01/21 13:09:58;;;;;;;;;;;;;;;-11.33;59.43;97509.84;6251139;28;20302;-68
2024/01/21 13:12:59;;;;;;;;;;;;;;;-11.37;59.51;97505.50;6268563;28;19920;-66
2024/01/21 13:16:01;;;;;;;;;;;;;;;-11.33;59.67;97502.25;6250573;28;20465;-68
2024/01/21 13:19:07;;;;;;;;;;;;;;;-11.43;59.51;97500.25;6268886;28;20321;-66
2024/01/21 13:22:10;;;;;;;;;;;;;;;-11.63;60.03;97501.28;6268750;28;19920;-67
2024/01/21 13:25:17;;;;;;;;;;;;;;;-11.59;59.95;97495.50;6268975;28;19927;-67
2024/01/21 13:31:27;;;;;;;;;;;;;;;-11.16;59.84;97484.09;6268090;28;19927;-67
2024/01/21 13:34:30;;;;;;;;;;;;;;;-11.23;59.64;97482.22;6268327;28;20449;-67
2024/01/21 13:37:35;;;;;;;;;;;;;;;-11.18;59.68;97493.34;6268468;28;19927;-67
2024/01/21 13:40:41;;;;;;;;;;;;;;;-11.05;59.76;97487.81;6268607;28;19920;-67
2024/01/21 13:43:42;;;;;;;;;;;;;;;-11.21;60.21;97495.81;6268129;28;19920;-68
2024/01/21 13:46:44;;;;;;;;;;;;;;;-11.06;59.65;97475.09;6268458;28;20062;-68
2024/01/21 13:49:45;;;;;;;;;;;;;;;-11.01;59.82;97493.84;6267879;28;19921;-69
2024/01/21 13:52:48;;;;;;;;;;;;;;;-10.89;59.32;97477.28;6269420;28;20340;-68
2024/01/21 13:55:52;;;;;;;;;;;;;;;-10.86;59.85;97467.19;6273167;28;19921;-68
2024/01/21 13:58:56;;;;;;;;;;;;;;;-10.82;59.30;97467.28;6274492;28;19928;-68
2024/01/21 14:01:57;;;;;;;;;;;;;;;-10.80;59.46;97474.13;6284034;28;19920;-66
2024/01/21 14:05:02;;;;;;;;;;;;;;;-10.76;59.23;97452.19;6297718;28;19927;-68
2024/01/21 14:08:10;;;;;;;;;;;;;;;-10.83;59.80;97455.41;6297892;28;19916;-67
2024/01/21 14:11:11;;;;;;;;;;;;;;;-10.78;59.91;97461.44;6297061;28;20070;-68
2024/01/21 14:14:13;;;;;;;;;;;;;;;-10.82;60.00;97459.66;6297650;28;19919;-67
2024/01/21 14:17:14;;;;;;;;;;;;;;;-10.74;60.28;97468.38;6297422;28;19920;-67
2024/01/21 14:20:15;;;;;;;;;;;;;;;-10.74;60.35;97448.03;6296963;28;19920;-67
2024/01/21 14:23:16;;;;;;;;;;;;;;;-10.66;60.35;97451.63;6296907;28;19925;-67
2024/01/21 14:26:23;;;;;;;;;;;;;;;-10.62;60.40;97449.19;6297544;28;19920;-67
2024/01/21 14:29:34;;;;;;;;;;;;;;;-10.74;60.64;97463.28;6296875;28;19921;-67
2024/01/21 14:32:38;;;;;;;;;;;;;;;-10.85;61.00;97440.94;6297409;28;19920;-67
2024/01/21 14:35:42;;;;;;;;;;;;;;;-10.82;60.97;97430.00;6296787;28;20412;-67
2024/01/21 14:38:43;;;;;;;;;;;;;;;-10.82;61.38;97439.31;6297039;28;19920;-67
2024/01/21 14:41:45;;;;;;;;;;;;;;;-10.70;61.34;97439.66;6296860;28;19926;-66
2024/01/21 14:44:46;;;;;;;;;;;;;;;-10.55;61.25;97419.72;6295021;28;20014;-66
2024/01/21 14:47:47;;;;;;;;;;;;;;;-10.79;61.76;97425.00;6296702;28;19927;-67
2024/01/21 14:50:52;;;;;;;;;;;;;;;-10.57;62.11;97426.44;6295611;28;19924;-68
2024/01/21 14:53:55;;;;;;;;;;;;;;;-10.58;62.04;97424.75;6296218;28;19939;-68
2024/01/21 14:56:57;;;;;;;;;;;;;;;-10.62;61.88;97430.53;6296510;28;19920;-68
2024/01/21 15:00:00;;;;;;;;;;;;;;;-10.70;61.95;97429.47;6293493;28;20050;-67
2024/01/21 15:03:02;;;;;;;;;;;;;;;-10.67;62.07;97434.63;6253463;28;19925;-68
2024/01/21 15:06:03;;;;;;;;;;;;;;;-10.67;62.13;97419.38;6270416;28;19921;-67
2024/01/21 15:09:07;;;;;;;;;;;;;;;-10.73;61.91;97429.41;6270536;28;20023;-67
2024/01/21 15:12:08;;;;;;;;;;;;;;;-10.81;62.40;97425.78;6271180;28;19927;-67
2024/01/21 15:15:09;;;;;;;;;;;;;;;-10.73;62.40;97431.94;6270617;28;20425;-67
2024/01/21 15:18:13;;;;;;;;;;;;;;;-10.76;62.73;97430.16;6271017;28;20516;-67
2024/01/21 15:21:17;;;;;;;;;;;;;;;-10.79;62.87;97424.16;6271593;28;19928;-67
2024/01/21 15:24:18;;;;;;;;;;;;;;;-10.61;63.05;97424.66;6271242;28;20014;-67
2024/01/21 15:27:21;;;;;;;;;;;;;;;-10.75;63.42;97410.72;6270927;28;20283;-68
2024/01/21 15:30:22;;;;;;;;;;;;;;;-10.54;62.78;97426.53;6271024;28;20337;-67
2024/01/21 15:33:25;;;;;;;;;;;;;;;-10.57;62.74;97436.63;6270206;28;19921;-67
2024/01/21 15:36:26;;;;;;;;;;;;;;;-10.59;62.87;97437.41;6270365;28;19928;-68
2024/01/21 15:39:34;;;;;;;;;;;;;;;-10.73;63.06;97420.09;6271113;28;19921;-67
2024/01/21 15:42:37;;;;;;;;;;;;;;;-10.70;63.33;97426.94;6270922;28;19929;-68
2024/01/21 15:45:40;;;;;;;;;;;;;;;-10.86;63.64;97434.16;6252365;28;19927;-67
2024/01/21 15:48:44;;;;;;;;;;;;;;;-10.63;64.10;97441.56;6270893;28;19920;-67